Time;durP1;ratioP1;P1;durP2;ratioP2;P2;SDS_P1;SDS_P2;PMS_P1;PMS_P2;Temp;Humidity;BMP_temperature;BMP_pressure;BME280_temperature;BME280_humidity;BME280_pressure;Samples;Min_cycle;Max_cycle;Signal;HPM_P1;HPM_P2
2022/05/10 00:02:25;;;;;;;;;13.25;11.25;;;;;;;;5002533;28;9771;-79
2022/05/10 00:04:53;;;;;;;;;13.50;13.50;;;;;;;;5004486;28;9764;-78
2022/05/10 00:07:24;;;;;;;;;15.25;12.75;;;;;;;;5019638;28;9865;-78
2022/05/10 00:09:51;;;;;;;;;12.00;10.00;;;;;;;;4997368;28;9997;-81
2022/05/10 00:12:19;;;;;;;;;13.50;12.00;;;;;;;;5010610;28;9918;-79
2022/05/10 00:14:46;;;;;;;;;13.25;11.00;;;;;;;;5019814;28;9948;-78
2022/05/10 00:17:24;;;;;;;;;11.25;11.25;;;;;;;;5005434;28;9780;-77
2022/05/10 00:19:52;;;;;;;;;15.50;14.75;;;;;;;;5017610;28;9987;-79
2022/05/10 00:22:20;;;;;;;;;14.75;14.75;;;;;;;;5021387;28;10078;-76
2022/05/10 00:24:47;;;;;;;;;16.50;14.75;;;;;;;;5018300;28;10062;-81
2022/05/10 00:27:14;;;;;;;;;15.25;15.25;;;;;;;;5016339;28;9968;-77
2022/05/10 00:29:42;;;;;;;;;13.00;13.00;;;;;;;;5017467;28;10188;-77
2022/05/10 00:32:09;;;;;;;;;14.25;14.25;;;;;;;;5013867;28;10065;-77
2022/05/10 00:34:38;;;;;;;;;12.25;12.25;;;;;;;;5021467;28;10197;-76
2022/05/10 00:37:05;;;;;;;;;11.00;10.75;;;;;;;;5017668;28;9913;-77
2022/05/10 00:39:32;;;;;;;;;15.00;11.75;;;;;;;;5015532;28;10222;-76
2022/05/10 00:42:03;;;;;;;;;17.25;17.25;;;;;;;;5021691;28;10432;-77
2022/05/10 00:44:36;;;;;;;;;15.50;15.50;;;;;;;;5021296;28;10109;-77
2022/05/10 00:47:09;;;;;;;;;14.00;14.00;;;;;;;;5015030;28;10109;-78
2022/05/10 00:49:42;;;;;;;;;15.00;13.00;;;;;;;;5002028;28;10286;-78
2022/05/10 00:52:15;;;;;;;;;17.75;16.50;;;;;;;;5020698;28;10228;-78
2022/05/10 00:54:46;;;;;;;;;16.50;12.25;;;;;;;;5017811;28;10189;-78
2022/05/10 00:57:23;;;;;;;;;12.25;12.25;;;;;;;;5021913;28;10276;-78
2022/05/10 00:59:57;;;;;;;;;17.75;16.00;;;;;;;;5016839;28;10217;-79
2022/05/10 01:02:34;;;;;;;;;15.75;15.75;;;;;;;;5002408;28;10216;-79
2022/05/10 01:05:09;;;;;;;;;17.00;16.50;;;;;;;;5016517;28;11077;-78
2022/05/10 01:07:42;;;;;;;;;15.00;13.50;;;;;;;;5017896;28;11314;-78
2022/05/10 01:10:15;;;;;;;;;17.25;17.25;;;;;;;;5017759;28;10468;-77
2022/05/10 01:12:46;;;;;;;;;14.25;12.75;;;;;;;;5020063;28;10431;-77
2022/05/10 01:15:17;;;;;;;;;13.50;13.00;;;;;;;;5017168;28;10515;-79
2022/05/10 01:17:44;;;;;;;;;16.25;14.50;;;;;;;;5013847;28;10559;-77
2022/05/10 01:20:18;;;;;;;;;13.25;13.25;;;;;;;;5013071;28;10527;-78
2022/05/10 01:22:58;;;;;;;;;14.00;14.00;;;;;;;;5015464;28;10408;-79
2022/05/10 01:25:49;;;;;;;;;13.50;13.50;;;;;;;;5008555;28;10395;-80
2022/05/10 01:28:23;;;;;;;;;14.00;14.00;;;;;;;;5020871;28;10509;-78
2022/05/10 01:30:50;;;;;;;;;13.75;13.75;;;;;;;;5018873;28;10322;-79
2022/05/10 01:33:29;;;;;;;;;17.75;13.75;;;;;;;;5023687;28;10461;-80
2022/05/10 01:36:10;;;;;;;;;18.00;18.00;;;;;;;;5025920;28;10515;-79
2022/05/10 01:38:44;;;;;;;;;13.50;13.50;;;;;;;;5002626;28;13045;-82
2022/05/10 01:41:25;;;;;;;;;15.00;15.00;;;;;;;;5023695;28;11419;-81
2022/05/10 01:44:01;;;;;;;;;12.00;12.00;;;;;;;;5021895;28;10563;-80
2022/05/10 01:46:31;;;;;;;;;14.50;13.50;;;;;;;;5001773;28;11319;-80
2022/05/10 01:49:04;;;;;;;;;14.75;13.00;;;;;;;;5019098;28;10440;-78
2022/05/10 01:51:36;;;;;;;;;19.75;15.75;;;;;;;;5001818;28;10708;-80
2022/05/10 01:54:04;;;;;;;;;13.50;13.50;;;;;;;;5024067;28;10504;-79
2022/05/10 01:56:34;;;;;;;;;13.50;13.50;;;;;;;;5018116;28;10710;-79
2022/05/10 01:59:03;;;;;;;;;19.50;16.25;;;;;;;;5023086;28;10596;-81
2022/05/10 02:01:34;;;;;;;;;15.50;15.50;;;;;;;;5024459;28;10538;-80
2022/05/10 02:04:04;;;;;;;;;16.50;16.50;;;;;;;;5021321;28;10963;-79
2022/05/10 02:06:34;;;;;;;;;16.25;13.75;;;;;;;;5025422;28;11651;-79
2022/05/10 02:09:07;;;;;;;;;17.75;15.00;;;;;;;;5016894;28;11697;-78
2022/05/10 02:11:37;;;;;;;;;12.25;12.25;;;;;;;;5023307;28;11781;-77
2022/05/10 02:14:11;;;;;;;;;17.50;17.50;;;;;;;;5023408;28;11656;-79
2022/05/10 02:16:42;;;;;;;;;15.00;14.00;;;;;;;;5010597;28;10909;-78
2022/05/10 02:19:16;;;;;;;;;15.00;15.00;;;;;;;;5022720;28;10741;-78
2022/05/10 02:21:48;;;;;;;;;15.75;12.50;;;;;;;;5022363;28;10655;-77
2022/05/10 02:24:20;;;;;;;;;16.00;16.00;;;;;;;;5014170;28;10953;-78
2022/05/10 02:26:51;;;;;;;;;15.50;15.50;;;;;;;;4999831;28;10891;-79
2022/05/10 02:29:26;;;;;;;;;17.25;16.50;;;;;;;;5017752;28;11027;-79
2022/05/10 02:34:45;;;;;;;;;21.25;21.00;;;;;;;;5020101;28;10972;-77
2022/05/10 02:37:12;;;;;;;;;16.75;15.00;;;;;;;;5019491;28;11011;-76
2022/05/10 02:39:40;;;;;;;;;16.75;16.75;;;;;;;;5014022;28;10913;-77
2022/05/10 02:42:09;;;;;;;;;19.00;17.25;;;;;;;;5022869;28;11025;-78
2022/05/10 02:44:38;;;;;;;;;20.00;18.50;;;;;;;;5009343;28;12281;-78
2022/05/10 02:47:06;;;;;;;;;20.50;19.00;;;;;;;;5022422;28;12706;-77
2022/05/10 02:49:33;;;;;;;;;19.75;19.00;;;;;;;;5024806;28;11044;-78
2022/05/10 02:52:03;;;;;;;;;22.75;20.25;;;;;;;;5021773;28;11026;-77
2022/05/10 02:54:33;;;;;;;;;24.50;20.50;;;;;;;;5005869;28;10835;-78
2022/05/10 02:57:03;;;;;;;;;19.25;19.25;;;;;;;;5022155;28;11087;-78
2022/05/10 02:59:35;;;;;;;;;19.25;17.50;;;;;;;;5013255;28;11020;-78
2022/05/10 03:02:09;;;;;;;;;18.75;18.75;;;;;;;;5017337;28;10781;-78
2022/05/10 03:04:39;;;;;;;;;18.75;16.75;;;;;;;;5023803;28;10860;-78
2022/05/10 03:07:08;;;;;;;;;9.25;8.50;;;;;;;;5023705;28;11002;-78
2022/05/10 03:09:36;;;;;;;;;26.25;25.50;;;;;;;;5016879;28;10857;-78
2022/05/10 03:12:04;;;;;;;;;23.25;23.00;;;;;;;;5021765;28;10921;-79
2022/05/10 03:14:32;;;;;;;;;26.00;23.75;;;;;;;;5017616;28;11692;-78
2022/05/10 03:17:04;;;;;;;;;21.00;21.00;;;;;;;;5023525;28;10855;-78
2022/05/10 03:19:32;;;;;;;;;24.50;22.00;;;;;;;;5023107;28;10791;-77
2022/05/10 03:22:00;;;;;;;;;20.00;17.75;;;;;;;;5022253;28;10605;-77
2022/05/10 03:24:27;;;;;;;;;20.25;20.25;;;;;;;;5021453;28;10659;-79
2022/05/10 03:26:55;;;;;;;;;26.00;22.75;;;;;;;;5021376;28;10536;-79
2022/05/10 03:29:25;;;;;;;;;22.75;22.75;;;;;;;;5024363;28;10633;-80
2022/05/10 03:31:52;;;;;;;;;20.25;20.25;;;;;;;;5004536;28;10527;-79
2022/05/10 03:37:06;;;;;;;;;17.75;17.75;;;;;;;;5023075;28;10407;-80
2022/05/10 03:39:34;;;;;;;;;18.00;18.00;;;;;;;;5016021;28;10457;-79
2022/05/10 03:42:04;;;;;;;;;18.75;18.75;;;;;;;;5023986;28;10491;-78
2022/05/10 03:44:32;;;;;;;;;20.50;20.50;;;;;;;;5023443;28;10385;-77
2022/05/10 03:47:03;;;;;;;;;21.00;21.00;;;;;;;;5023541;28;10507;-75
2022/05/10 03:49:31;;;;;;;;;22.25;18.00;;;;;;;;5022745;28;10439;-76
2022/05/10 03:52:01;;;;;;;;;21.75;20.25;;;;;;;;5023580;28;10664;-76
2022/05/10 03:54:29;;;;;;;;;24.00;24.00;;;;;;;;5004009;28;10448;-76
2022/05/10 03:56:58;;;;;;;;;19.50;19.50;;;;;;;;5021447;28;10393;-76
2022/05/10 03:59:26;;;;;;;;;21.50;21.50;;;;;;;;5005706;28;10365;-78
2022/05/10 04:01:53;;;;;;;;;23.25;18.50;;;;;;;;5020900;28;10339;-78
2022/05/10 04:04:20;;;;;;;;;22.00;22.00;;;;;;;;5020124;28;10223;-78
2022/05/10 04:06:49;;;;;;;;;19.50;19.50;;;;;;;;5001823;28;11192;-78
2022/05/10 04:09:17;;;;;;;;;23.50;22.00;;;;;;;;5022089;28;10317;-78
2022/05/10 04:11:44;;;;;;;;;7.50;7.50;;;;;;;;5020043;28;10188;-79
2022/05/10 04:14:13;;;;;;;;;24.50;22.50;;;;;;;;5023695;28;10193;-77
2022/05/10 04:16:41;;;;;;;;;18.50;18.50;;;;;;;;5022603;28;10317;-77
2022/05/10 04:19:08;;;;;;;;;22.50;21.25;;;;;;;;5021905;28;10087;-77
2022/05/10 04:21:35;;;;;;;;;25.75;22.50;;;;;;;;5019546;28;10147;-76
2022/05/10 04:24:04;;;;;;;;;21.75;21.75;;;;;;;;5009870;28;10400;-77
2022/05/10 04:26:31;;;;;;;;;25.50;22.75;;;;;;;;5019707;28;10314;-78
2022/05/10 04:29:01;;;;;;;;;22.00;22.00;;;;;;;;5014707;28;10136;-76
2022/05/10 04:31:31;;;;;;;;;19.50;17.25;;;;;;;;5017971;28;10171;-78
2022/05/10 04:34:01;;;;;;;;;24.00;24.00;;;;;;;;5020081;28;10103;-78
2022/05/10 04:36:28;;;;;;;;;23.50;21.25;;;;;;;;5014957;28;10471;-78
2022/05/10 04:38:56;;;;;;;;;21.25;20.75;;;;;;;;5017606;28;10572;-80
2022/05/10 04:41:25;;;;;;;;;26.00;26.00;;;;;;;;5001298;28;10838;-78
2022/05/10 04:43:53;;;;;;;;;25.50;25.50;;;;;;;;5019162;28;10765;-81
2022/05/10 04:46:21;;;;;;;;;25.00;25.00;;;;;;;;5016031;28;11820;-82
2022/05/10 04:48:49;;;;;;;;;25.25;24.00;;;;;;;;5006197;28;10847;-83
2022/05/10 04:51:16;;;;;;;;;28.00;28.00;;;;;;;;5019198;28;11049;-79
2022/05/10 04:53:44;;;;;;;;;22.00;20.00;;;;;;;;5021562;28;11043;-80
2022/05/10 04:56:11;;;;;;;;;23.25;22.75;;;;;;;;5003598;28;10573;-79
2022/05/10 04:58:40;;;;;;;;;26.50;26.50;;;;;;;;5003234;28;10600;-81
2022/05/10 05:01:09;;;;;;;;;28.00;26.25;;;;;;;;5015215;28;10708;-82
2022/05/10 05:03:37;;;;;;;;;24.75;23.75;;;;;;;;5020069;28;10703;-81
2022/05/10 05:06:04;;;;;;;;;25.75;25.75;;;;;;;;5018016;28;10622;-80
2022/05/10 05:08:32;;;;;;;;;23.50;20.00;;;;;;;;5015897;28;10539;-78
2022/05/10 05:11:02;;;;;;;;;20.00;20.00;;;;;;;;5001210;28;11277;-79
2022/05/10 05:13:32;;;;;;;;;24.25;23.75;;;;;;;;5018008;28;10102;-79
2022/05/10 05:16:01;;;;;;;;;18.50;18.50;;;;;;;;5015285;28;9892;-81
2022/05/10 05:18:29;;;;;;;;;25.00;20.75;;;;;;;;5021281;28;10015;-81
2022/05/10 05:20:56;;;;;;;;;23.50;21.75;;;;;;;;5019533;28;9707;-82
2022/05/10 05:23:24;;;;;;;;;17.25;17.00;;;;;;;;5012212;28;9765;-80
2022/05/10 05:25:52;;;;;;;;;23.25;21.50;;;;;;;;5016677;28;9575;-80
2022/05/10 05:28:20;;;;;;;;;29.00;26.00;;;;;;;;5017448;28;10334;-82
2022/05/10 05:30:47;;;;;;;;;15.33;15.33;;;;;;;;5011033;28;9389;-85
2022/05/10 05:33:16;;;;;;;;;26.33;25.67;;;;;;;;5014336;28;9363;-93
2022/05/10 05:35:43;;;;;;;;;19.33;19.33;;;;;;;;5017638;28;9570;-80
2022/05/10 05:38:11;;;;;;;;;19.67;19.67;;;;;;;;5017134;28;9442;-81
2022/05/10 05:40:39;;;;;;;;;22.33;22.33;;;;;;;;5018995;28;9437;-83
2022/05/10 05:43:07;;;;;;;;;24.67;23.00;;;;;;;;5018205;28;9111;-83
2022/05/10 05:45:34;;;;;;;;;29.00;25.00;;;;;;;;5020806;28;9281;-82
2022/05/10 05:48:02;;;;;;;;;26.67;26.00;;;;;;;;5019573;28;9252;-82
2022/05/10 05:50:31;;;;;;;;;21.00;21.00;;;;;;;;5020240;28;9292;-81
2022/05/10 05:53:04;;;;;;;;;23.33;22.67;;;;;;;;5008795;28;9122;-83
2022/05/10 05:55:31;;;;;;;;;21.33;21.33;;;;;;;;5006806;28;9828;-76
2022/05/10 05:57:58;;;;;;;;;24.00;22.25;;;;;;;;5012108;28;8961;-76
2022/05/10 06:00:27;;;;;;;;;25.00;21.33;;;;;;;;5019762;28;8832;-81
2022/05/10 06:02:55;;;;;;;;;22.00;22.00;;;;;;;;5020550;28;8956;-82
2022/05/10 06:05:24;;;;;;;;;21.25;20.50;;;;;;;;5020746;28;8852;-83
2022/05/10 06:07:53;;;;;;;;;19.50;19.00;;;;;;;;4996431;28;8909;-80
2022/05/10 06:10:21;;;;;;;;;19.00;19.00;;;;;;;;5014488;28;8866;-81
2022/05/10 06:12:48;;;;;;;;;20.50;18.50;;;;;;;;5020015;28;8869;-81
2022/05/10 06:15:18;;;;;;;;;16.25;13.75;;;;;;;;5019839;28;8886;-82
2022/05/10 06:17:47;;;;;;;;;23.75;23.00;;;;;;;;5020361;28;8979;-82
2022/05/10 06:20:17;;;;;;;;;23.00;21.00;;;;;;;;5023669;28;8898;-80
2022/05/10 06:22:45;;;;;;;;;22.00;20.25;;;;;;;;5023332;28;8873;-78
2022/05/10 06:25:17;;;;;;;;;21.50;21.50;;;;;;;;5021457;28;8861;-79
2022/05/10 06:27:45;;;;;;;;;20.50;19.50;;;;;;;;5005148;28;9651;-78
2022/05/10 06:30:13;;;;;;;;;23.50;23.50;;;;;;;;5019553;28;8887;-77
2022/05/10 06:32:41;;;;;;;;;24.75;23.00;;;;;;;;5023489;28;8885;-78
2022/05/10 06:35:08;;;;;;;;;20.75;19.75;;;;;;;;5016924;28;8852;-74
2022/05/10 06:40:22;;;;;;;;;19.25;17.75;;;;;;;;5005579;28;8801;-78
2022/05/10 06:42:50;;;;;;;;;22.50;21.50;;;;;;;;5010283;28;9758;-77
2022/05/10 06:45:19;;;;;;;;;18.50;18.25;;;;;;;;5023007;28;8895;-79
2022/05/10 06:47:49;;;;;;;;;21.25;21.25;;;;;;;;5015209;28;9619;-80
2022/05/10 06:50:19;;;;;;;;;26.75;26.75;;;;;;;;5017459;28;8878;-78
2022/05/10 06:52:46;;;;;;;;;21.75;21.75;;;;;;;;5021122;28;8861;-84
2022/05/10 06:55:13;;;;;;;;;21.75;21.75;;;;;;;;5016311;28;8860;-81
2022/05/10 06:57:42;;;;;;;;;24.00;24.00;;;;;;;;5025057;28;8918;-80
2022/05/10 07:00:13;;;;;;;;;21.00;21.00;;;;;;;;5004800;28;8983;-76
2022/05/10 07:02:40;;;;;;;;;20.50;18.75;;;;;;;;5020830;28;8868;-76
2022/05/10 07:05:09;;;;;;;;;21.25;20.25;;;;;;;;5022128;28;8864;-74
2022/05/10 07:07:37;;;;;;;;;20.25;20.25;;;;;;;;5023370;28;8900;-75
2022/05/10 07:10:08;;;;;;;;;19.75;18.75;;;;;;;;5021826;28;8857;-74
2022/05/10 07:12:36;;;;;;;;;31.50;31.25;;;;;;;;5015133;28;8865;-73
2022/05/10 07:15:06;;;;;;;;;23.25;23.25;;;;;;;;5020341;28;8849;-74
2022/05/10 07:17:34;;;;;;;;;45.25;37.50;;;;;;;;5015361;28;8902;-74
2022/05/10 07:20:02;;;;;;;;;21.50;20.25;;;;;;;;5004365;28;8868;-73
2022/05/10 07:22:32;;;;;;;;;40.00;35.50;;;;;;;;5015928;28;8871;-75
2022/05/10 07:25:00;;;;;;;;;20.25;20.00;;;;;;;;5002222;28;8876;-74
2022/05/10 07:27:27;;;;;;;;;22.25;19.25;;;;;;;;5019318;28;8872;-74
2022/05/10 07:29:54;;;;;;;;;19.75;19.75;;;;;;;;5019306;28;8895;-76
2022/05/10 07:32:24;;;;;;;;;15.25;15.25;;;;;;;;5018144;28;9275;-75
2022/05/10 07:34:51;;;;;;;;;21.00;20.50;;;;;;;;5017032;28;8865;-74
2022/05/10 07:37:19;;;;;;;;;19.25;18.00;;;;;;;;5020024;28;9550;-76
2022/05/10 07:39:46;;;;;;;;;19.25;19.25;;;;;;;;5017253;28;8856;-76
2022/05/10 07:42:13;;;;;;;;;17.00;17.00;;;;;;;;5021708;28;8932;-75
2022/05/10 07:44:41;;;;;;;;;17.50;17.50;;;;;;;;5018295;28;8859;-75
2022/05/10 07:47:09;;;;;;;;;16.25;14.50;;;;;;;;5016795;28;8983;-75
2022/05/10 07:49:38;;;;;;;;;15.50;15.50;;;;;;;;5021200;28;8901;-76
2022/05/10 07:52:06;;;;;;;;;18.00;16.25;;;;;;;;5023650;28;8881;-76
2022/05/10 07:54:35;;;;;;;;;19.00;19.00;;;;;;;;5020419;28;8890;-76
2022/05/10 07:57:02;;;;;;;;;14.50;14.00;;;;;;;;5015093;28;8900;-76
2022/05/10 07:59:31;;;;;;;;;16.00;16.00;;;;;;;;5023281;28;8878;-75
2022/05/10 08:01:58;;;;;;;;;17.50;17.50;;;;;;;;5020151;28;8797;-75
2022/05/10 08:04:26;;;;;;;;;14.50;14.50;;;;;;;;5001929;28;9692;-76
2022/05/10 08:06:55;;;;;;;;;20.25;18.50;;;;;;;;5019508;28;8868;-76
2022/05/10 08:09:23;;;;;;;;;16.00;16.00;;;;;;;;5014739;28;8891;-75
2022/05/10 08:11:50;;;;;;;;;17.75;16.75;;;;;;;;5013885;28;8932;-76
2022/05/10 08:14:20;;;;;;;;;19.25;18.00;;;;;;;;5012713;28;8879;-76
2022/05/10 08:16:47;;;;;;;;;17.00;17.00;;;;;;;;5021070;28;8884;-77
2022/05/10 08:19:17;;;;;;;;;17.75;16.25;;;;;;;;5016384;28;8873;-75
2022/05/10 08:21:45;;;;;;;;;16.80;16.80;;;;;;;;5013485;28;8986;-81
2022/05/10 08:24:13;;;;;;;;;17.60;16.20;;;;;;;;5016561;28;8907;-79
2022/05/10 08:26:41;;;;;;;;;17.80;17.80;;;;;;;;5015101;28;8864;-78
2022/05/10 08:29:08;;;;;;;;;14.80;14.80;;;;;;;;5011526;28;8860;-81
2022/05/10 08:31:36;;;;;;;;;14.00;14.00;;;;;;;;5015949;28;8856;-78
2022/05/10 08:34:05;;;;;;;;;17.60;17.00;;;;;;;;5018355;28;8879;-82
2022/05/10 08:36:33;;;;;;;;;13.60;13.60;;;;;;;;5016594;28;8874;-80
2022/05/10 08:39:01;;;;;;;;;13.20;13.20;;;;;;;;5003580;28;8951;-78
2022/05/10 08:41:33;;;;;;;;;12.00;12.00;;;;;;;;5012772;28;9599;-80
2022/05/10 08:44:07;;;;;;;;;13.20;13.20;;;;;;;;5022423;28;8855;-81
2022/05/10 08:46:38;;;;;;;;;16.00;14.40;;;;;;;;5019321;28;8852;-79
2022/05/10 08:49:13;;;;;;;;;17.60;15.60;;;;;;;;5017590;28;8872;-78
2022/05/10 08:51:40;;;;;;;;;11.80;11.80;;;;;;;;5018132;28;8864;-82
2022/05/10 08:54:08;;;;;;;;;16.00;13.80;;;;;;;;5017322;28;8942;-81
2022/05/10 08:56:45;;;;;;;;;14.00;14.00;;;;;;;;5022894;28;8941;-82
2022/05/10 08:59:23;;;;;;;;;14.40;12.60;;;;;;;;5015667;28;8883;-82
2022/05/10 09:01:56;;;;;;;;;12.40;12.40;;;;;;;;5000131;28;8849;-82
2022/05/10 09:04:41;;;;;;;;;12.00;12.00;;;;;;;;5017966;28;8856;-84
2022/05/10 09:07:16;;;;;;;;;15.00;13.80;;;;;;;;5020331;28;9646;-83
2022/05/10 09:09:52;;;;;;;;;14.40;14.40;;;;;;;;5005766;28;9007;-83
2022/05/10 09:12:23;;;;;;;;;12.00;11.60;;;;;;;;5023134;28;8894;-83
2022/05/10 09:14:55;;;;;;;;;15.20;12.60;;;;;;;;5023667;28;8873;-84
2022/05/10 09:17:22;;;;;;;;;15.60;13.80;;;;;;;;5022422;28;8894;-83
2022/05/10 09:19:51;;;;;;;;;13.60;13.60;;;;;;;;5022560;28;8876;-84
2022/05/10 09:22:28;;;;;;;;;12.20;12.20;;;;;;;;5018910;28;8874;-83
2022/05/10 09:24:56;;;;;;;;;12.80;11.20;;;;;;;;5009409;28;8898;-80
2022/05/10 09:27:32;;;;;;;;;14.20;13.00;;;;;;;;5022796;28;8885;-82
2022/05/10 09:30:00;;;;;;;;;13.40;12.20;;;;;;;;5003755;28;9655;-81
2022/05/10 09:35:17;;;;;;;;;15.20;14.20;;;;;;;;5017890;28;8943;-81
2022/05/10 09:37:46;;;;;;;;;12.40;12.40;;;;;;;;5019221;28;9606;-80
2022/05/10 09:40:32;;;;;;;;;12.60;11.80;;;;;;;;5020566;28;8998;-78
2022/05/10 09:43:21;;;;;;;;;10.80;9.20;;;;;;;;5016935;28;9811;-80
2022/05/10 09:46:09;;;;;;;;;16.40;13.00;;;;;;;;5024385;28;8888;-80
2022/05/10 09:48:36;;;;;;;;;15.00;13.20;;;;;;;;5023400;28;8869;-80
2022/05/10 09:51:25;;;;;;;;;16.60;15.00;;;;;;;;5021574;28;8861;-80
2022/05/10 09:53:54;;;;;;;;;11.80;11.80;;;;;;;;5014104;28;8903;-81
2022/05/10 09:56:37;;;;;;;;;14.00;14.00;;;;;;;;5025931;28;8869;-84
2022/05/10 09:59:28;;;;;;;;;16.20;14.20;;;;;;;;5008600;28;8911;-83
2022/05/10 10:01:57;;;;;;;;;12.00;12.00;;;;;;;;5022217;28;8820;-84
2022/05/10 10:04:31;;;;;;;;;11.40;11.40;;;;;;;;5025213;28;8923;-78
2022/05/10 10:07:06;;;;;;;;;10.60;10.60;;;;;;;;5008934;28;8851;-76
2022/05/10 10:09:37;;;;;;;;;14.00;12.00;;;;;;;;5028561;28;9011;-80
2022/05/10 10:12:06;;;;;;;;;13.40;13.40;;;;;;;;5026967;28;9618;-77
2022/05/10 10:14:40;;;;;;;;;11.60;11.40;;;;;;;;5027276;28;8880;-81
2022/05/10 10:17:18;;;;;;;;;13.40;12.00;;;;;;;;5006781;28;8876;-82
2022/05/10 10:19:49;;;;;;;;;14.00;12.40;;;;;;;;5005080;28;8909;-84
2022/05/10 10:22:20;;;;;;;;;11.80;11.80;;;;;;;;5018621;28;8894;-84
2022/05/10 10:24:51;;;;;;;;;10.40;10.40;;;;;;;;5010787;28;8878;-83
2022/05/10 10:27:24;;;;;;;;;11.00;11.00;;;;;;;;5007806;28;8930;-84
2022/05/10 10:29:56;;;;;;;;;10.60;10.60;;;;;;;;5002692;28;8911;-87
2022/05/10 10:32:28;;;;;;;;;10.20;10.20;;;;;;;;5018412;28;8839;-83
2022/05/10 10:35:00;;;;;;;;;12.00;11.20;;;;;;;;5016964;28;8874;-78
2022/05/10 10:37:33;;;;;;;;;11.60;11.60;;;;;;;;5012347;28;10690;-85
2022/05/10 10:40:11;;;;;;;;;14.00;12.00;;;;;;;;5018504;28;8852;-78
2022/05/10 10:42:49;;;;;;;;;11.00;11.00;;;;;;;;5019263;28;8999;-81
2022/05/10 10:45:19;;;;;;;;;14.00;13.20;;;;;;;;5024831;28;8848;-84
2022/05/10 10:47:55;;;;;;;;;8.60;7.40;;;;;;;;5017821;28;8870;-85
2022/05/10 10:50:27;;;;;;;;;10.60;10.60;;;;;;;;5000453;28;8881;-80
2022/05/10 10:52:56;;;;;;;;;10.60;10.60;;;;;;;;5022756;28;8869;-80
2022/05/10 10:55:31;;;;;;;;;12.20;12.00;;;;;;;;5023000;28;8880;-80
2022/05/10 10:58:06;;;;;;;;;11.00;11.00;;;;;;;;5020774;28;8957;-77
2022/05/10 11:00:42;;;;;;;;;11.80;11.80;;;;;;;;5016880;28;8966;-78
2022/05/10 11:03:15;;;;;;;;;10.40;10.40;;;;;;;;5021842;28;9783;-76
2022/05/10 11:06:10;;;;;;;;;13.00;13.00;;;;;;;;5002381;28;8914;-77
2022/05/10 11:08:53;;;;;;;;;11.80;10.60;;;;;;;;5015293;28;8873;-80
2022/05/10 11:11:27;;;;;;;;;9.00;7.80;;;;;;;;5018373;28;8873;-82
2022/05/10 11:14:00;;;;;;;;;13.80;13.80;;;;;;;;5020035;28;8876;-81
2022/05/10 11:16:38;;;;;;;;;12.60;12.20;;;;;;;;5010658;28;8871;-78
2022/05/10 11:19:28;;;;;;;;;13.60;11.80;;;;;;;;5021589;28;8903;-79
2022/05/10 11:22:04;;;;;;;;;14.80;14.20;;;;;;;;5013855;28;9629;-79
2022/05/10 11:24:40;;;;;;;;;13.80;12.20;;;;;;;;5021018;28;8857;-82
2022/05/10 11:27:18;;;;;;;;;15.40;14.00;;;;;;;;5016161;28;8889;-78
2022/05/10 11:30:01;;;;;;;;;11.00;11.00;;;;;;;;5018997;28;8882;-79
2022/05/10 11:32:45;;;;;;;;;12.40;12.40;;;;;;;;5023017;28;8834;-79
2022/05/10 11:35:30;;;;;;;;;12.00;11.20;;;;;;;;5019333;28;8864;-79
2022/05/10 11:38:03;;;;;;;;;12.60;11.00;;;;;;;;5014641;28;8891;-78
2022/05/10 11:40:47;;;;;;;;;10.80;9.80;;;;;;;;5016137;28;8887;-81
2022/05/10 11:43:47;;;;;;;;;10.40;10.40;;;;;;;;5023278;28;9776;-84
2022/05/10 11:46:35;;;;;;;;;11.00;11.00;;;;;;;;5019472;28;9948;-82
2022/05/10 11:49:37;;;;;;;;;12.00;12.00;;;;;;;;5016695;28;8878;-81
2022/05/10 11:52:31;;;;;;;;;11.60;10.20;;;;;;;;5018483;28;8930;-82
2022/05/10 11:55:11;;;;;;;;;10.00;9.80;;;;;;;;5001753;28;9752;-83
2022/05/10 11:57:40;;;;;;;;;12.40;11.80;;;;;;;;5014873;28;8995;-84
2022/05/10 12:00:50;;;;;;;;;8.40;7.40;;;;;;;;5020001;28;8963;-80
2022/05/10 12:03:53;;;;;;;;;10.80;10.80;;;;;;;;4953993;28;8881;-83
2022/05/10 12:06:39;;;;;;;;;11.20;11.00;;;;;;;;4995937;28;8873;-84
2022/05/10 12:09:07;;;;;;;;;13.00;13.00;;;;;;;;5016255;28;9678;-82
2022/05/10 12:11:40;;;;;;;;;9.60;9.60;;;;;;;;5015309;28;8886;-82
2022/05/10 12:23:01;;;;;;;;;11.60;10.60;;;;;;;;5017432;28;8868;-82
2022/05/10 12:25:57;;;;;;;;;11.00;11.00;;;;;;;;5018490;28;8887;-83
2022/05/10 12:28:42;;;;;;;;;9.80;9.80;;;;;;;;5010543;28;8869;-81
2022/05/10 12:31:41;;;;;;;;;8.20;8.20;;;;;;;;4996682;28;8859;-77
2022/05/10 12:34:10;;;;;;;;;9.80;9.80;;;;;;;;4985748;28;8861;-83
2022/05/10 12:36:39;;;;;;;;;8.00;8.00;;;;;;;;5012838;28;8916;-84
2022/05/10 12:39:22;;;;;;;;;10.20;10.20;;;;;;;;5020373;28;8884;-84
2022/05/10 12:41:53;;;;;;;;;11.00;10.60;;;;;;;;5014187;28;8856;-80
2022/05/10 12:44:39;;;;;;;;;9.60;9.60;;;;;;;;5011339;28;9000;-81
2022/05/10 12:47:45;;;;;;;;;11.00;11.00;;;;;;;;4996933;28;10754;-82
2022/05/10 12:50:25;;;;;;;;;8.40;7.00;;;;;;;;5013963;28;8942;-81
2022/05/10 12:52:53;;;;;;;;;7.00;7.00;;;;;;;;5015876;28;8871;-82
2022/05/10 12:55:24;;;;;;;;;9.00;8.40;;;;;;;;5019755;28;8877;-83
2022/05/10 12:57:56;;;;;;;;;6.40;6.40;;;;;;;;5018661;28;8889;-79
2022/05/10 13:00:25;;;;;;;;;8.00;8.00;;;;;;;;5020872;28;8816;-79
2022/05/10 13:02:56;;;;;;;;;8.40;8.40;;;;;;;;5020251;28;8904;-81
2022/05/10 13:05:32;;;;;;;;;10.40;9.60;;;;;;;;5018915;28;8862;-83
2022/05/10 13:08:24;;;;;;;;;9.00;9.00;;;;;;;;5010861;28;8872;-77
2022/05/10 13:10:54;;;;;;;;;9.20;9.20;;;;;;;;5016672;28;8897;-82
2022/05/10 13:13:26;;;;;;;;;7.80;7.80;;;;;;;;5019948;28;8852;-82
2022/05/10 13:15:54;;;;;;;;;10.00;9.00;;;;;;;;5018897;28;8872;-83
2022/05/10 13:18:24;;;;;;;;;8.40;8.40;;;;;;;;5020036;28;8881;-81
2022/05/10 13:20:53;;;;;;;;;8.80;8.80;;;;;;;;5017346;28;8886;-80
2022/05/10 13:23:21;;;;;;;;;9.20;6.80;;;;;;;;5010733;28;8888;-80
2022/05/10 13:25:49;;;;;;;;;7.60;7.60;;;;;;;;5006634;28;8883;-80
2022/05/10 13:28:21;;;;;;;;;7.60;7.60;;;;;;;;5019343;28;8893;-79
2022/05/10 13:30:50;;;;;;;;;7.80;7.80;;;;;;;;5020111;28;8816;-81
2022/05/10 13:33:24;;;;;;;;;7.40;6.00;;;;;;;;5025426;28;8983;-80
2022/05/10 13:35:54;;;;;;;;;7.00;7.00;;;;;;;;5025665;28;8869;-77
2022/05/10 13:38:26;;;;;;;;;7.40;7.40;;;;;;;;5007779;28;8896;-80
2022/05/10 13:40:58;;;;;;;;;8.20;8.20;;;;;;;;5020821;28;8863;-81
2022/05/10 13:43:32;;;;;;;;;8.00;8.00;;;;;;;;5021832;28;8965;-80
2022/05/10 13:46:02;;;;;;;;;9.40;8.00;;;;;;;;5027460;28;8882;-76
2022/05/10 13:48:31;;;;;;;;;7.00;6.00;;;;;;;;5023867;28;8944;-82
2022/05/10 13:51:06;;;;;;;;;7.00;7.00;;;;;;;;5022536;28;8860;-82
2022/05/10 13:53:35;;;;;;;;;7.40;6.60;;;;;;;;5007338;28;8865;-76
2022/05/10 13:56:02;;;;;;;;;7.60;7.60;;;;;;;;5025636;28;8864;-84
2022/05/10 13:58:33;;;;;;;;;6.60;6.40;;;;;;;;5024419;28;8868;-82
2022/05/10 14:01:01;;;;;;;;;7.80;7.80;;;;;;;;5019095;28;8813;-79
2022/05/10 14:03:29;;;;;;;;;6.20;6.20;;;;;;;;5022566;28;8864;-79
2022/05/10 14:06:05;;;;;;;;;8.00;8.00;;;;;;;;5021672;28;8837;-77
2022/05/10 14:08:34;;;;;;;;;6.80;6.80;;;;;;;;5025305;28;8880;-80
2022/05/10 14:11:07;;;;;;;;;7.00;7.00;;;;;;;;5023860;28;8865;-82
2022/05/10 14:13:39;;;;;;;;;7.00;7.00;;;;;;;;5022194;28;8903;-80
2022/05/10 14:16:08;;;;;;;;;10.00;8.00;;;;;;;;5024271;28;8860;-79
2022/05/10 14:18:39;;;;;;;;;5.00;5.00;;;;;;;;5026694;28;8876;-79
2022/05/10 14:21:14;;;;;;;;;7.00;7.00;;;;;;;;5025370;28;8999;-77
2022/05/10 14:23:41;;;;;;;;;5.40;5.40;;;;;;;;5022157;28;8860;-80
2022/05/10 14:26:29;;;;;;;;;5.00;5.00;;;;;;;;5004786;28;8904;-81
2022/05/10 14:29:07;;;;;;;;;6.80;6.80;;;;;;;;5023074;28;8931;-82
2022/05/10 14:31:36;;;;;;;;;7.80;7.80;;;;;;;;5017865;28;8872;-81
2022/05/10 14:34:03;;;;;;;;;6.60;5.60;;;;;;;;5020637;28;8895;-83
2022/05/10 14:36:35;;;;;;;;;7.40;6.80;;;;;;;;5022638;28;8885;-83
2022/05/10 14:39:04;;;;;;;;;7.00;7.00;;;;;;;;5027840;28;8894;-85
2022/05/10 14:41:36;;;;;;;;;4.60;4.60;;;;;;;;5024555;28;8869;-82
2022/05/10 14:44:17;;;;;;;;;6.00;6.00;;;;;;;;5027298;28;8866;-83
2022/05/10 14:46:53;;;;;;;;;5.60;5.60;;;;;;;;5013459;28;8942;-82
2022/05/10 14:49:38;;;;;;;;;6.00;6.00;;;;;;;;5020145;28;8952;-85
2022/05/10 14:52:20;;;;;;;;;4.60;4.60;;;;;;;;5022224;28;8896;-84
2022/05/10 14:54:48;;;;;;;;;7.00;6.40;;;;;;;;5021447;28;8942;-82
2022/05/10 14:57:21;;;;;;;;;6.00;6.00;;;;;;;;5018408;28;8876;-82
2022/05/10 14:59:54;;;;;;;;;5.00;5.00;;;;;;;;5020904;28;8892;-83
2022/05/10 15:02:25;;;;;;;;;7.00;7.00;;;;;;;;5001986;28;9501;-83
2022/05/10 15:04:52;;;;;;;;;6.00;4.00;;;;;;;;5022735;28;8860;-75
2022/05/10 15:07:20;;;;;;;;;4.80;4.80;;;;;;;;5021965;28;8856;-84
2022/05/10 15:09:48;;;;;;;;;6.60;6.60;;;;;;;;5020879;28;8916;-81
2022/05/10 15:15:02;;;;;;;;;6.00;6.00;;;;;;;;5021821;28;8877;-84
2022/05/10 15:18:58;;;;;;;;;5.80;5.80;;;;;;;;5004887;28;8881;-81
2022/05/10 15:20:17;;;;;;;;;6.20;6.20;;;;;;;;5018492;28;8860;-82
2022/05/10 15:22:44;;;;;;;;;5.20;5.20;;;;;;;;5022091;28;8872;-78